Time;durP1;ratioP1;P1;durP2;ratioP2;P2;SDS_P1;SDS_P2;PMS_P1;PMS_P2;Temp;Humidity;BMP_temperature;BMP_pressure;BME280_temperature;BME280_humidity;BME280_pressure;Samples;Min_cycle;Max_cycle;Signal;HPM_P1;HPM_P2
2023/12/20 00:02:19;;;;;;;0.60;0.60;;;21.60;50.20;;;;;;4951923;28;20118;-67
2023/12/20 00:04:45;;;;;;;1.77;0.70;;;21.60;50.20;;;;;;4950558;28;20031;-66
2023/12/20 00:07:10;;;;;;;0.57;0.57;;;21.60;50.20;;;;;;4943861;28;20372;-66
2023/12/20 00:09:36;;;;;;;1.20;0.70;;;21.60;50.20;;;;;;4944593;28;20023;-67
2023/12/20 00:12:01;;;;;;;1.52;0.60;;;21.60;50.20;;;;;;4947362;28;20065;-68
2023/12/20 00:14:27;;;;;;;0.70;0.70;;;21.60;50.30;;;;;;4946636;28;20598;-67
2023/12/20 00:16:52;;;;;;;0.77;0.70;;;21.60;50.30;;;;;;4942350;28;20035;-67
2023/12/20 00:19:18;;;;;;;0.65;0.60;;;21.60;50.20;;;;;;4940116;28;20027;-67
2023/12/20 00:21:43;;;;;;;0.98;0.65;;;21.60;50.20;;;;;;4944083;28;20086;-68
2023/12/20 00:24:09;;;;;;;1.08;0.63;;;21.60;50.30;;;;;;4938289;28;20035;-68
2023/12/20 00:26:34;;;;;;;0.73;0.70;;;21.60;50.30;;;;;;4947093;28;20455;-67
2023/12/20 00:29:00;;;;;;;0.73;0.60;;;21.60;50.30;;;;;;4943637;28;20028;-67
2023/12/20 00:31:25;;;;;;;0.40;0.40;;;21.60;50.30;;;;;;4946599;28;20669;-67
2023/12/20 00:33:51;;;;;;;1.45;1.00;;;21.60;50.30;;;;;;4940168;28;20046;-67
2023/12/20 00:36:16;;;;;;;0.93;0.60;;;21.60;50.30;;;;;;4947686;28;20619;-67
2023/12/20 00:38:41;;;;;;;0.60;0.60;;;21.60;50.30;;;;;;4948807;28;20039;-65
2023/12/20 00:41:07;;;;;;;0.50;0.50;;;21.60;50.30;;;;;;4936493;28;20082;-66
2023/12/20 00:43:32;;;;;;;0.68;0.60;;;21.60;50.30;;;;;;4939153;28;20059;-66
2023/12/20 00:45:59;;;;;;;0.75;0.63;;;21.60;50.20;;;;;;4945616;28;20454;-67
2023/12/20 00:48:26;;;;;;;0.90;0.75;;;21.60;50.30;;;;;;4943987;28;20031;-67
2023/12/20 00:50:52;;;;;;;0.63;0.50;;;21.60;50.30;;;;;;4941323;28;20043;-67
2023/12/20 00:53:17;;;;;;;0.80;0.77;;;21.60;50.30;;;;;;4944978;28;20402;-67
2023/12/20 00:55:44;;;;;;;0.52;0.52;;;21.60;50.30;;;;;;4939988;28;20558;-66
2023/12/20 00:58:10;;;;;;;0.70;0.60;;;21.60;50.30;;;;;;4947156;28;20067;-67
2023/12/20 01:00:35;;;;;;;0.82;0.70;;;21.60;50.30;;;;;;4940023;28;20059;-67
2023/12/20 01:03:01;;;;;;;0.60;0.60;;;21.60;50.30;;;;;;4944262;28;20098;-68
2023/12/20 01:05:26;;;;;;;1.20;0.60;;;21.60;50.30;;;;;;4944048;28;20118;-67
2023/12/20 01:07:52;;;;;;;1.02;0.50;;;21.50;50.30;;;;;;4939533;28;20406;-67
2023/12/20 01:10:17;;;;;;;0.73;0.52;;;21.50;50.40;;;;;;4947028;28;20027;-67
2023/12/20 01:12:43;;;;;;;0.50;0.45;;;21.40;50.50;;;;;;4938703;28;20020;-67
2023/12/20 01:15:09;;;;;;;0.70;0.50;;;21.40;50.70;;;;;;4942645;28;20032;-67
2023/12/20 01:17:35;;;;;;;0.60;0.60;;;21.30;50.80;;;;;;4942017;28;20058;-67
2023/12/20 01:20:00;;;;;;;0.57;0.50;;;21.30;50.90;;;;;;4941804;28;20030;-67
2023/12/20 01:22:26;;;;;;;0.60;0.60;;;21.20;51.10;;;;;;4941333;28;20085;-68
2023/12/20 01:24:51;;;;;;;0.50;0.50;;;21.10;51.20;;;;;;4946552;28;20090;-67
2023/12/20 01:27:17;;;;;;;0.68;0.60;;;21.00;51.30;;;;;;4940709;28;20034;-67
2023/12/20 01:29:43;;;;;;;0.90;0.50;;;21.00;51.30;;;;;;4942385;28;20034;-67
2023/12/20 01:32:08;;;;;;;0.47;0.47;;;20.90;51.30;;;;;;4945406;28;20031;-67
2023/12/20 01:34:34;;;;;;;0.70;0.60;;;20.90;51.50;;;;;;4938555;28;20059;-66
2023/12/20 01:37:00;;;;;;;0.77;0.70;;;20.90;51.50;;;;;;4946196;28;20046;-67
2023/12/20 01:39:25;;;;;;;0.45;0.40;;;20.80;51.60;;;;;;4945536;28;20028;-67
2023/12/20 01:41:51;;;;;;;0.63;0.60;;;20.90;51.60;;;;;;4945975;28;20038;-67
2023/12/20 01:44:16;;;;;;;0.43;0.43;;;20.80;51.50;;;;;;4946868;28;20031;-67
2023/12/20 01:46:43;;;;;;;0.40;0.40;;;20.90;51.60;;;;;;4945949;28;20571;-67
2023/12/20 01:49:08;;;;;;;1.20;0.50;;;20.90;51.50;;;;;;4936989;28;20035;-64
2023/12/20 01:51:34;;;;;;;0.60;0.60;;;20.90;51.40;;;;;;4940853;28;20051;-67
2023/12/20 01:54:00;;;;;;;0.85;0.60;;;21.00;51.30;;;;;;4947513;28;20072;-67
2023/12/20 01:56:28;;;;;;;0.60;0.60;;;21.00;51.20;;;;;;4939034;28;20114;-67
2023/12/20 01:58:54;;;;;;;0.40;0.40;;;21.00;51.10;;;;;;4946701;28;20110;-66
2023/12/20 02:01:19;;;;;;;0.82;0.47;;;21.00;51.00;;;;;;4940570;28;20027;-67
2023/12/20 02:03:45;;;;;;;0.60;0.40;;;21.00;51.00;;;;;;4938705;28;20043;-67
2023/12/20 02:06:11;;;;;;;0.60;0.60;;;21.10;51.00;;;;;;4944372;28;20071;-67
2023/12/20 02:08:37;;;;;;;0.40;0.40;;;21.10;51.00;;;;;;4949567;28;20118;-67
2023/12/20 02:11:02;;;;;;;0.57;0.47;;;21.10;50.90;;;;;;4946184;28;20417;-67
2023/12/20 02:13:28;;;;;;;0.50;0.40;;;21.10;50.90;;;;;;4946372;28;20711;-66
2023/12/20 02:15:54;;;;;;;0.38;0.32;;;21.20;50.90;;;;;;4946972;28;20040;-66
2023/12/20 02:18:20;;;;;;;0.52;0.52;;;21.20;50.80;;;;;;4941505;28;20090;-66
2023/12/20 02:20:45;;;;;;;0.45;0.43;;;21.20;50.70;;;;;;4945987;28;20035;-67
2023/12/20 02:23:11;;;;;;;0.50;0.50;;;21.20;50.70;;;;;;4945973;28;20031;-67
2023/12/20 02:25:37;;;;;;;0.50;0.50;;;21.20;50.70;;;;;;4949102;28;20038;-67
2023/12/20 02:28:03;;;;;;;0.50;0.50;;;21.30;50.70;;;;;;4950868;28;20062;-67
2023/12/20 02:30:29;;;;;;;1.13;0.40;;;21.30;50.60;;;;;;4946053;28;20047;-67
2023/12/20 02:32:54;;;;;;;0.30;0.30;;;21.30;50.60;;;;;;4951537;28;20544;-67
2023/12/20 02:35:20;;;;;;;0.47;0.40;;;21.30;50.60;;;;;;4945545;28;20058;-67
2023/12/20 02:37:45;;;;;;;0.70;0.40;;;21.30;50.60;;;;;;4945607;28;20043;-67
2023/12/20 02:40:11;;;;;;;0.57;0.40;;;21.30;50.50;;;;;;4945281;28;20027;-66
2023/12/20 02:42:36;;;;;;;0.63;0.50;;;21.30;50.50;;;;;;4942853;28;20051;-67
2023/12/20 02:45:02;;;;;;;0.90;0.43;;;21.40;50.50;;;;;;4951186;28;20032;-67
2023/12/20 02:47:29;;;;;;;1.30;0.40;;;21.30;50.40;;;;;;4947947;28;20062;-67
2023/12/20 02:49:55;;;;;;;0.68;0.50;;;21.40;50.40;;;;;;4950190;28;20031;-67
2023/12/20 02:52:21;;;;;;;0.68;0.50;;;21.40;50.40;;;;;;4944936;28;20039;-67
2023/12/20 02:54:46;;;;;;;0.45;0.40;;;21.40;50.40;;;;;;4942720;28;20402;-66
2023/12/20 02:57:12;;;;;;;0.80;0.45;;;21.40;50.40;;;;;;4945942;28;20079;-67
2023/12/20 02:59:37;;;;;;;0.40;0.40;;;21.40;50.40;;;;;;4942893;28;21795;-67
2023/12/20 03:02:03;;;;;;;0.50;0.40;;;21.40;50.40;;;;;;4948804;28;20119;-68
2023/12/20 03:04:28;;;;;;;0.60;0.60;;;21.40;50.40;;;;;;4947810;28;20268;-67
2023/12/20 03:06:54;;;;;;;0.30;0.30;;;21.40;50.40;;;;;;4948212;28;20027;-67
2023/12/20 03:09:19;;;;;;;0.60;0.50;;;21.40;50.40;;;;;;4945801;28;20034;-67
2023/12/20 03:11:45;;;;;;;0.35;0.32;;;21.40;51.00;;;;;;4947317;28;20035;-67
2023/12/20 03:14:10;;;;;;;0.43;0.35;;;21.40;50.40;;;;;;4938095;28;20070;-67
2023/12/20 03:16:35;;;;;;;0.55;0.50;;;21.40;50.40;;;;;;4944192;28;20084;-67
2023/12/20 03:19:01;;;;;;;0.45;0.43;;;21.40;50.40;;;;;;4946081;28;20533;-67
2023/12/20 03:21:26;;;;;;;1.27;0.40;;;21.40;50.30;;;;;;4947084;28;20039;-67
2023/12/20 03:23:52;;;;;;;0.65;0.38;;;21.40;50.40;;;;;;4949181;28;20375;-67
2023/12/20 03:26:18;;;;;;;0.55;0.40;;;21.40;50.40;;;;;;4943697;28;20100;-67
2023/12/20 03:28:44;;;;;;;0.30;0.30;;;21.40;50.30;;;;;;4951425;28;20024;-67
2023/12/20 03:31:10;;;;;;;0.40;0.40;;;21.40;50.30;;;;;;4943903;28;20050;-65
2023/12/20 03:33:35;;;;;;;0.20;0.20;;;21.40;50.40;;;;;;4950446;28;20020;-67
2023/12/20 03:36:01;;;;;;;0.95;0.68;;;21.40;50.30;;;;;;4940978;28;20571;-67
2023/12/20 03:38:26;;;;;;;0.60;0.40;;;21.40;50.30;;;;;;4949159;28;20110;-67
2023/12/20 03:40:52;;;;;;;0.57;0.40;;;21.40;50.30;;;;;;4948631;28;20047;-67
2023/12/20 03:43:17;;;;;;;0.60;0.40;;;21.40;50.20;;;;;;4950945;28;20038;-67
2023/12/20 03:45:43;;;;;;;0.38;0.38;;;21.50;50.30;;;;;;4946711;28;20027;-66
2023/12/20 03:48:09;;;;;;;0.55;0.30;;;21.50;50.30;;;;;;4941811;28;20063;-67
2023/12/20 03:50:34;;;;;;;0.32;0.32;;;21.50;50.30;;;;;;4948524;28;20611;-67
2023/12/20 03:53:00;;;;;;;0.30;0.30;;;21.50;50.20;;;;;;4939681;28;20032;-67
2023/12/20 03:55:25;;;;;;;0.40;0.35;;;21.50;50.20;;;;;;4946242;28;20082;-67
2023/12/20 03:57:51;;;;;;;0.52;0.40;;;21.50;50.20;;;;;;4946433;28;20055;-68
2023/12/20 04:00:16;;;;;;;0.30;0.30;;;21.50;50.20;;;;;;4948137;28;20159;-67
2023/12/20 04:02:42;;;;;;;0.40;0.40;;;21.50;50.20;;;;;;4934382;28;20028;-67
2023/12/20 04:05:09;;;;;;;0.30;0.30;;;21.50;50.20;;;;;;4946178;28;20707;-67
2023/12/20 04:07:35;;;;;;;0.30;0.30;;;21.50;50.20;;;;;;4945379;28;20521;-67
2023/12/20 04:10:01;;;;;;;0.40;0.40;;;21.50;50.20;;;;;;4949166;28;20046;-66
2023/12/20 04:12:28;;;;;;;1.92;0.60;;;21.50;50.20;;;;;;4947992;28;20034;-67
2023/12/20 04:14:53;;;;;;;0.35;0.35;;;21.50;50.10;;;;;;4946197;28;20044;-67
2023/12/20 04:17:22;;;;;;;0.30;0.30;;;21.50;50.10;;;;;;4950766;28;20508;-67
2023/12/20 04:19:48;;;;;;;1.13;0.22;;;21.50;50.20;;;;;;4944566;28;20031;-67
2023/12/20 04:22:13;;;;;;;0.40;0.40;;;21.50;50.10;;;;;;4947390;28;20386;-65
2023/12/20 04:24:39;;;;;;;0.20;0.20;;;21.50;50.10;;;;;;4951496;28;20031;-67
2023/12/20 04:27:04;;;;;;;0.28;0.28;;;21.50;50.10;;;;;;4948713;28;20039;-67
2023/12/20 04:29:30;;;;;;;0.30;0.30;;;21.60;50.20;;;;;;4942507;28;20035;-67
2023/12/20 04:31:55;;;;;;;0.30;0.30;;;21.60;50.20;;;;;;4949222;28;20127;-67
2023/12/20 04:34:22;;;;;;;0.30;0.30;;;21.60;50.10;;;;;;4951027;28;20031;-66
2023/12/20 04:36:47;;;;;;;0.40;0.22;;;21.60;50.10;;;;;;4947954;28;20043;-66
2023/12/20 04:39:14;;;;;;;0.25;0.22;;;21.50;50.10;;;;;;4949863;28;20046;-67
2023/12/20 04:41:40;;;;;;;0.30;0.30;;;21.50;50.20;;;;;;4944672;28;20083;-67
2023/12/20 04:44:06;;;;;;;0.32;0.32;;;21.50;50.10;;;;;;4951193;28;20078;-67
2023/12/20 04:46:31;;;;;;;0.38;0.38;;;21.60;50.20;;;;;;4946265;28;20691;-67
2023/12/20 04:48:57;;;;;;;0.20;0.20;;;21.50;50.20;;;;;;4946569;28;20572;-67
2023/12/20 04:51:23;;;;;;;0.20;0.20;;;21.50;50.30;;;;;;4948066;28;20438;-67
2023/12/20 04:53:48;;;;;;;0.30;0.20;;;21.40;50.30;;;;;;4944670;28;20027;-66
2023/12/20 04:56:14;;;;;;;0.35;0.22;;;21.40;50.30;;;;;;4949423;28;20053;-66
2023/12/20 04:58:39;;;;;;;0.20;0.20;;;21.40;50.40;;;;;;4944424;28;20031;-67
2023/12/20 05:01:06;;;;;;;0.20;0.20;;;21.40;50.40;;;;;;4945533;28;20114;-67
2023/12/20 05:03:31;;;;;;;0.15;0.15;;;21.30;50.40;;;;;;4950901;28;20130;-67
2023/12/20 05:05:58;;;;;;;0.55;0.20;;;21.30;50.40;;;;;;4949399;28;20494;-64
2023/12/20 05:08:23;;;;;;;0.30;0.30;;;21.40;50.50;;;;;;4943549;28;20398;-67
2023/12/20 05:10:49;;;;;;;0.30;0.30;;;21.30;50.50;;;;;;4944233;28;20027;-67
2023/12/20 05:13:14;;;;;;;0.30;0.20;;;21.30;50.50;;;;;;4951412;28;20449;-67
2023/12/20 05:15:40;;;;;;;0.50;0.30;;;21.30;50.60;;;;;;4946436;28;20479;-66
2023/12/20 05:18:05;;;;;;;0.40;0.20;;;21.30;50.60;;;;;;4946885;28;20049;-67
2023/12/20 05:20:31;;;;;;;0.20;0.20;;;21.20;50.60;;;;;;4953290;28;20058;-67
2023/12/20 05:22:56;;;;;;;0.35;0.30;;;21.20;50.60;;;;;;4948161;28;20579;-67
2023/12/20 05:25:22;;;;;;;0.32;0.20;;;21.20;50.70;;;;;;4949246;28;20043;-67
2023/12/20 05:27:48;;;;;;;0.17;0.17;;;21.20;50.70;;;;;;4949727;28;20039;-66
2023/12/20 05:30:13;;;;;;;0.35;0.25;;;21.20;50.70;;;;;;4951241;28;20035;-67
2023/12/20 05:32:39;;;;;;;0.30;0.20;;;21.20;50.70;;;;;;4946037;28;20031;-67
2023/12/20 05:35:05;;;;;;;0.68;0.30;;;21.20;50.70;;;;;;4945854;28;20134;-67
2023/12/20 05:37:30;;;;;;;0.20;0.20;;;21.20;50.70;;;;;;4948409;28;20494;-66
2023/12/20 05:39:55;;;;;;;0.63;0.28;;;21.10;50.70;;;;;;4944498;28;20593;-66
2023/12/20 05:42:21;;;;;;;1.30;0.32;;;21.20;50.80;;;;;;4948510;28;20035;-67
2023/12/20 05:44:46;;;;;;;1.00;0.20;;;21.10;50.70;;;;;;4940348;28;20075;-66
2023/12/20 05:47:12;;;;;;;0.20;0.20;;;21.20;50.70;;;;;;4946102;28;20035;-67
2023/12/20 05:49:37;;;;;;;0.22;0.20;;;21.10;50.70;;;;;;4947683;28;20114;-66
2023/12/20 05:52:03;;;;;;;0.20;0.20;;;21.10;50.70;;;;;;4944683;28;20043;-67
2023/12/20 05:54:28;;;;;;;0.10;0.10;;;21.10;50.70;;;;;;4949428;28;20498;-67
2023/12/20 05:56:54;;;;;;;0.38;0.25;;;21.10;50.70;;;;;;4946746;28;20035;-67
2023/12/20 05:59:19;;;;;;;0.30;0.20;;;21.10;50.70;;;;;;4951255;28;20063;-67
2023/12/20 06:01:45;;;;;;;0.20;0.20;;;21.10;50.70;;;;;;4948439;28;20031;-66
2023/12/20 06:04:10;;;;;;;0.20;0.20;;;21.10;50.60;;;;;;4950231;28;20041;-67
2023/12/20 06:06:42;;;;;;;0.60;0.10;;;21.10;50.70;;;;;;4948779;28;20037;-67
2023/12/20 06:09:07;;;;;;;0.20;0.20;;;21.10;50.70;;;;;;4947021;28;20027;-67
2023/12/20 06:11:32;;;;;;;0.20;0.20;;;21.20;50.70;;;;;;4948632;28;20556;-67
2023/12/20 06:13:58;;;;;;;0.20;0.20;;;21.10;50.60;;;;;;4949128;28;20028;-67
2023/12/20 06:16:23;;;;;;;1.20;0.30;;;21.20;50.70;;;;;;4951681;28;20042;-66
2023/12/20 06:18:49;;;;;;;0.15;0.15;;;21.20;50.70;;;;;;4946327;28;20498;-67
2023/12/20 06:21:14;;;;;;;0.10;0.10;;;21.20;50.70;;;;;;4947765;28;20036;-68
2023/12/20 06:23:40;;;;;;;0.20;0.20;;;21.20;50.70;;;;;;4946871;28;20030;-67
2023/12/20 06:26:06;;;;;;;0.65;0.20;;;21.20;50.70;;;;;;4943964;28;20039;-66
2023/12/20 06:28:31;;;;;;;0.40;0.20;;;21.20;50.60;;;;;;4943171;28;20040;-67
2023/12/20 06:30:57;;;;;;;0.20;0.13;;;21.20;50.60;;;;;;4945433;28;20524;-67
2023/12/20 06:33:23;;;;;;;0.20;0.10;;;21.20;50.60;;;;;;4951651;28;20518;-67
2023/12/20 06:35:50;;;;;;;0.20;0.20;;;21.20;50.60;;;;;;4943521;28;20035;-67
2023/12/20 06:38:15;;;;;;;0.52;0.30;;;21.20;50.60;;;;;;4950562;28;20074;-67
2023/12/20 06:40:40;;;;;;;0.15;0.15;;;21.20;50.50;;;;;;4945126;28;20049;-67
2023/12/20 06:43:06;;;;;;;0.20;0.20;;;21.30;50.60;;;;;;4946209;28;20039;-67
2023/12/20 06:45:32;;;;;;;0.20;0.20;;;21.20;50.50;;;;;;4951841;28;20059;-67
2023/12/20 06:47:58;;;;;;;0.25;0.17;;;21.30;50.40;;;;;;4944674;28;20036;-68
2023/12/20 06:50:24;;;;;;;0.22;0.22;;;21.30;50.40;;;;;;4945944;28;20031;-67
2023/12/20 06:52:49;;;;;;;0.10;0.10;;;21.30;50.40;;;;;;4943191;28;20103;-67
2023/12/20 06:55:15;;;;;;;0.57;0.30;;;21.30;51.00;;;;;;4947343;28;20035;-66
2023/12/20 06:57:40;;;;;;;0.10;0.10;;;21.30;50.40;;;;;;4946513;28;20019;-67
2023/12/20 07:00:06;;;;;;;0.20;0.20;;;21.30;50.40;;;;;;4947012;28;20027;-67
2023/12/20 07:02:32;;;;;;;0.17;0.15;;;21.30;50.30;;;;;;4945627;28;20041;-67
2023/12/20 07:04:57;;;;;;;0.45;0.20;;;21.40;50.30;;;;;;4949302;28;20035;-68
2023/12/20 07:07:24;;;;;;;0.30;0.17;;;21.30;50.20;;;;;;4951101;28;21537;-67
2023/12/20 07:09:49;;;;;;;0.10;0.10;;;21.40;50.30;;;;;;4945119;28;20036;-67
2023/12/20 07:12:15;;;;;;;0.20;0.10;;;21.40;50.30;;;;;;4949465;28;20189;-68
2023/12/20 07:14:40;;;;;;;0.10;0.10;;;21.40;50.20;;;;;;4948775;28;20043;-67
2023/12/20 07:17:11;;;;;;;0.43;0.40;;;21.40;50.20;;;;;;4949852;28;20106;-68
2023/12/20 07:19:37;;;;;;;0.17;0.10;;;21.40;50.20;;;;;;4954858;28;20026;-66
2023/12/20 07:22:04;;;;;;;0.20;0.20;;;21.40;50.10;;;;;;4950611;28;20043;-68
2023/12/20 07:24:29;;;;;;;0.10;0.10;;;21.40;50.20;;;;;;4950638;28;20031;-66
2023/12/20 07:26:55;;;;;;;0.28;0.20;;;21.40;50.20;;;;;;4947789;28;20027;-67
2023/12/20 07:29:20;;;;;;;0.10;0.10;;;21.40;50.20;;;;;;4949248;28;20102;-68
2023/12/20 07:31:46;;;;;;;0.15;0.10;;;21.40;50.10;;;;;;4948035;28;20058;-67
2023/12/20 07:34:11;;;;;;;0.22;0.22;;;21.40;50.10;;;;;;4948806;28;20169;-67
2023/12/20 07:36:37;;;;;;;0.15;0.10;;;21.40;50.10;;;;;;4948119;28;20039;-69
2023/12/20 07:39:03;;;;;;;0.10;0.10;;;21.40;50.10;;;;;;4948347;28;20115;-67
2023/12/20 07:41:28;;;;;;;0.10;0.10;;;21.40;50.10;;;;;;4948485;28;20028;-67
2023/12/20 07:43:54;;;;;;;0.10;0.10;;;21.40;50.10;;;;;;4948117;28;20680;-66
2023/12/20 07:46:22;;;;;;;0.10;0.10;;;21.40;50.10;;;;;;4957296;28;20035;-66
2023/12/20 07:48:48;;;;;;;0.15;0.10;;;21.40;50.10;;;;;;4948446;28;20027;-68
2023/12/20 07:51:13;;;;;;;0.60;0.20;;;21.40;50.10;;;;;;4946841;28;20035;-67
2023/12/20 07:53:39;;;;;;;0.50;0.20;;;21.50;50.10;;;;;;4948250;28;20030;-67
2023/12/20 07:56:15;;;;;;;1.10;0.10;;;21.40;50.10;;;;;;4945480;28;20036;-67
2023/12/20 07:58:40;;;;;;;0.40;0.22;;;21.40;50.10;;;;;;4945822;28;20482;-68
2023/12/20 08:01:06;;;;;;;0.75;0.20;;;21.40;50.10;;;;;;4947244;28;20043;-66
2023/12/20 08:03:31;;;;;;;0.47;0.10;;;21.40;50.10;;;;;;4949051;28;20028;-67
2023/12/20 08:05:59;;;;;;;0.22;0.20;;;21.40;50.10;;;;;;4946517;28;20039;-68
2023/12/20 08:08:25;;;;;;;0.60;0.20;;;21.40;50.10;;;;;;4948647;28;20063;-68
2023/12/20 08:10:50;;;;;;;1.23;0.22;;;21.40;50.10;;;;;;4946747;28;20133;-68
2023/12/20 08:13:15;;;;;;;0.40;0.20;;;21.40;50.10;;;;;;4951290;28;20475;-68
2023/12/20 08:15:41;;;;;;;0.65;0.20;;;21.40;50.10;;;;;;4951656;28;20043;-67
2023/12/20 08:18:06;;;;;;;0.40;0.20;;;21.50;50.20;;;;;;4947747;28;20060;-66
2023/12/20 08:20:32;;;;;;;0.43;0.30;;;21.50;50.10;;;;;;4952527;28;20023;-67
2023/12/20 08:22:57;;;;;;;1.75;0.20;;;21.50;50.00;;;;;;4950965;28;20065;-68
2023/12/20 08:25:23;;;;;;;0.60;0.40;;;21.50;50.10;;;;;;4957053;28;20521;-67
2023/12/20 08:27:48;;;;;;;1.85;0.32;;;21.50;50.10;;;;;;4951503;28;20106;-67
2023/12/20 08:30:14;;;;;;;0.28;0.10;;;21.50;50.10;;;;;;4955699;28;20031;-66
2023/12/20 08:32:39;;;;;;;0.65;0.20;;;21.50;50.10;;;;;;4947396;28;20567;-66
2023/12/20 08:35:05;;;;;;;0.38;0.15;;;21.50;50.00;;;;;;4952273;28;20050;-66
2023/12/20 08:37:31;;;;;;;0.98;0.20;;;21.50;50.00;;;;;;4957847;28;20035;-66
2023/12/20 08:39:57;;;;;;;0.32;0.20;;;21.50;50.00;;;;;;4945416;28;20039;-65
2023/12/20 08:42:24;;;;;;;0.50;0.40;;;21.50;50.00;;;;;;4952535;28;20518;-66
2023/12/20 08:44:49;;;;;;;0.98;0.57;;;21.50;50.00;;;;;;4948786;28;20051;-66
2023/12/20 08:47:15;;;;;;;0.47;0.40;;;21.50;50.00;;;;;;4956810;28;20031;-65
2023/12/20 08:49:41;;;;;;;0.30;0.30;;;21.60;50.00;;;;;;4953712;28;20042;-66
2023/12/20 08:52:07;;;;;;;1.20;0.40;;;21.50;49.90;;;;;;4951161;28;20043;-64
2023/12/20 08:54:32;;;;;;;1.10;0.40;;;21.60;49.90;;;;;;4947775;28;20531;-65
2023/12/20 08:56:57;;;;;;;0.63;0.30;;;21.50;49.90;;;;;;4951283;28;20417;-66
2023/12/20 08:59:23;;;;;;;0.65;0.30;;;21.50;50.00;;;;;;4951819;28;20036;-66
2023/12/20 09:01:54;;;;;;;0.73;0.32;;;21.40;50.10;;;;;;4950527;28;20043;-65
2023/12/20 09:04:19;;;;;;;1.50;0.55;;;21.40;50.20;;;;;;4950844;28;20043;-66
2023/12/20 09:06:45;;;;;;;0.70;0.50;;;21.30;50.30;;;;;;4946559;28;20123;-66
2023/12/20 09:09:13;;;;;;;1.90;0.50;;;21.20;50.40;;;;;;4946627;28;20559;-66
2023/12/20 09:11:39;;;;;;;0.88;0.60;;;21.20;50.60;;;;;;4951281;28;20031;-64
2023/12/20 09:14:04;;;;;;;3.17;0.55;;;21.10;50.70;;;;;;4955443;28;20031;-66
2023/12/20 09:16:31;;;;;;;1.75;0.77;;;21.00;50.70;;;;;;4950506;28;20034;-66
2023/12/20 09:18:57;;;;;;;2.78;1.40;;;21.00;50.90;;;;;;4951240;28;20031;-66
2023/12/20 09:21:22;;;;;;;5.50;1.90;;;20.90;51.00;;;;;;4957172;28;20474;-67
2023/12/20 09:23:47;;;;;;;4.40;1.45;;;20.80;51.10;;;;;;4954933;28;20069;-66
2023/12/20 09:26:13;;;;;;;5.43;1.90;;;20.80;51.20;;;;;;4947683;28;20031;-66
2023/12/20 09:28:40;;;;;;;3.63;2.03;;;20.70;51.30;;;;;;4953164;28;20031;-66
2023/12/20 09:31:06;;;;;;;8.68;2.50;;;20.70;51.40;;;;;;4945922;28;20039;-67
2023/12/20 09:33:34;;;;;;;5.72;2.72;;;20.70;51.60;;;;;;4950782;28;20114;-66
2023/12/20 09:36:00;;;;;;;9.40;3.30;;;20.60;51.60;;;;;;4949925;28;20035;-66
2023/12/20 09:38:25;;;;;;;8.45;3.08;;;20.50;51.70;;;;;;4951070;28;20567;-66
2023/12/20 09:40:51;;;;;;;9.70;3.58;;;20.50;51.80;;;;;;4950293;28;20077;-66
2023/12/20 09:43:20;;;;;;;7.80;2.95;;;20.40;51.90;;;;;;4946859;28;20042;-66
2023/12/20 09:45:47;;;;;;;8.13;3.88;;;20.50;51.90;;;;;;4950957;28;20059;-66
2023/12/20 09:48:14;;;;;;;9.18;4.15;;;20.50;52.40;;;;;;4951540;28;20035;-66
2023/12/20 09:50:40;;;;;;;7.30;3.55;;;20.50;51.70;;;;;;4954898;28;20032;-67
2023/12/20 09:53:09;;;;;;;9.77;4.07;;;20.50;51.70;;;;;;4938151;28;20051;-67
2023/12/20 09:55:36;;;;;;;9.63;4.85;;;20.60;51.70;;;;;;4950417;28;20019;-67
2023/12/20 09:58:02;;;;;;;9.27;3.67;;;20.60;51.50;;;;;;4947650;28;20022;-67
2023/12/20 10:00:27;;;;;;;8.95;3.92;;;20.80;51.30;;;;;;4942740;28;20031;-67
2023/12/20 10:02:58;;;;;;;12.13;4.15;;;20.90;51.10;;;;;;4946766;28;20426;-67
2023/12/20 10:05:29;;;;;;;10.68;3.88;;;21.00;50.80;;;;;;4943096;28;20035;-67
2023/12/20 10:07:54;;;;;;;10.93;4.57;;;21.10;50.60;;;;;;4938009;28;20031;-67
2023/12/20 10:10:20;;;;;;;10.48;4.45;;;21.20;50.30;;;;;;4946761;28;20066;-67
2023/12/20 10:13:06;;;;;;;11.43;5.05;;;21.30;50.10;;;;;;4946505;28;20074;-66
2023/12/20 10:15:35;;;;;;;15.23;5.78;;;21.50;50.30;;;;;;4949027;28;20081;-66
2023/12/20 10:18:04;;;;;;;15.15;5.53;;;21.80;49.60;;;;;;4961630;28;20686;-66
2023/12/20 10:20:30;;;;;;;16.02;6.20;;;22.30;48.90;;;;;;4951393;28;20023;-66
2023/12/20 10:22:57;;;;;;;14.65;6.05;;;22.60;48.30;;;;;;4943364;28;20046;-67
2023/12/20 10:25:23;;;;;;;16.60;5.90;;;22.90;47.90;;;;;;4951607;28;20481;-66
2023/12/20 10:27:50;;;;;;;19.63;6.03;;;23.20;47.20;;;;;;4946028;28;20027;-66
2023/12/20 10:30:15;;;;;;;24.88;6.30;;;23.40;46.90;;;;;;4951533;28;20415;-66
2023/12/20 10:32:41;;;;;;;23.13;5.78;;;23.60;46.70;;;;;;4943896;28;20046;-66
2023/12/20 10:35:07;;;;;;;16.00;5.22;;;23.90;46.40;;;;;;4948202;28;20046;-65
2023/12/20 10:37:37;;;;;;;16.85;5.50;;;24.00;46.10;;;;;;4957263;28;20181;-67
2023/12/20 10:40:05;;;;;;;15.05;5.22;;;24.10;46.00;;;;;;4940440;28;20122;-67
2023/12/20 10:42:33;;;;;;;12.30;4.85;;;24.30;45.90;;;;;;4951733;28;20078;-67
2023/12/20 10:44:59;;;;;;;17.00;5.65;;;24.50;45.70;;;;;;4946384;28;20072;-66
2023/12/20 10:47:26;;;;;;;16.15;4.97;;;24.50;45.50;;;;;;4943264;28;20123;-67
2023/12/20 10:49:52;;;;;;;15.48;4.80;;;24.60;45.50;;;;;;4944427;28;20179;-66
2023/12/20 10:52:18;;;;;;;9.65;4.35;;;24.70;45.40;;;;;;4950513;28;20118;-66
2023/12/20 10:54:44;;;;;;;15.10;5.93;;;24.80;45.20;;;;;;4956351;28;20122;-67
2023/12/20 10:57:10;;;;;;;12.02;4.70;;;24.90;45.10;;;;;;4950965;28;20371;-66
2023/12/20 10:59:37;;;;;;;12.80;4.63;;;24.90;45.20;;;;;;4952012;28;20038;-67
2023/12/20 11:02:05;;;;;;;11.27;4.35;;;24.90;45.30;;;;;;4947300;28;20039;-66
2023/12/20 11:04:50;;;;;;;17.10;5.28;;;24.90;45.30;;;;;;4947693;28;20035;-67
2023/12/20 11:07:42;;;;;;;13.35;3.92;;;25.00;45.30;;;;;;4954578;28;20114;-67
2023/12/20 11:10:20;;;;;;;16.45;4.43;;;25.00;45.20;;;;;;4946357;28;20043;-67
2023/12/20 11:12:53;;;;;;;10.50;4.25;;;25.00;45.40;;;;;;4946029;28;20473;-66
2023/12/20 11:15:19;;;;;;;10.63;4.18;;;24.90;45.50;;;;;;4951037;28;20043;-66
2023/12/20 11:17:48;;;;;;;15.75;5.20;;;24.80;45.70;;;;;;4963922;28;20058;-65
2023/12/20 11:20:14;;;;;;;11.00;4.28;;;24.70;46.00;;;;;;4944452;28;20062;-65
2023/12/20 11:22:52;;;;;;;7.55;3.92;;;24.50;46.20;;;;;;4946879;28;20467;-66
2023/12/20 11:25:18;;;;;;;10.63;3.65;;;24.40;46.50;;;;;;4946948;28;20043;-65
2023/12/20 11:27:43;;;;;;;9.10;3.60;;;24.30;46.80;;;;;;4948371;28;20089;-64
2023/12/20 11:30:09;;;;;;;6.93;3.50;;;24.10;47.10;;;;;;4950016;28;20048;-67
2023/12/20 11:32:36;;;;;;;9.30;3.42;;;24.00;47.30;;;;;;4949210;28;20466;-67
2023/12/20 11:35:18;;;;;;;10.05;4.07;;;23.90;47.50;;;;;;4945971;28;20105;-66
2023/12/20 11:37:47;;;;;;;7.18;3.13;;;23.70;47.70;;;;;;4952065;28;20046;-65
2023/12/20 11:40:15;;;;;;;8.45;3.80;;;23.60;47.90;;;;;;4944189;28;20080;-66
2023/12/20 11:42:42;;;;;;;9.80;3.80;;;23.50;48.10;;;;;;4949537;28;20027;-65
2023/12/20 11:45:14;;;;;;;9.48;3.17;;;23.40;48.30;;;;;;4945333;28;20646;-66
2023/12/20 11:47:40;;;;;;;8.35;3.65;;;23.30;48.40;;;;;;4944884;28;20027;-67
2023/12/20 11:50:06;;;;;;;6.93;3.20;;;23.20;48.60;;;;;;4948152;28;20046;-66
2023/12/20 11:52:32;;;;;;;7.63;3.40;;;23.10;48.80;;;;;;4942890;28;20050;-66
2023/12/20 11:54:57;;;;;;;7.90;3.00;;;23.00;48.90;;;;;;4947587;28;20046;-67
2023/12/20 11:57:23;;;;;;;7.60;3.40;;;22.90;49.00;;;;;;4946916;28;20047;-67
2023/12/20 11:59:49;;;;;;;6.35;3.20;;;22.80;49.20;;;;;;4944696;28;20024;-67
2023/12/20 12:02:15;;;;;;;7.07;3.00;;;22.80;49.30;;;;;;4945086;28;20123;-67
2023/12/20 12:04:43;;;;;;;5.75;3.28;;;22.70;50.00;;;;;;4952899;28;20027;-67
2023/12/20 12:07:09;;;;;;;6.78;3.40;;;22.60;49.40;;;;;;4946943;28;20027;-67
2023/12/20 12:09:35;;;;;;;5.38;2.70;;;22.50;49.50;;;;;;4946525;28;20498;-66
2023/12/20 12:12:01;;;;;;;7.20;3.22;;;22.50;49.70;;;;;;4944987;28;20573;-67
2023/12/20 12:14:27;;;;;;;7.88;3.38;;;22.40;49.80;;;;;;4946800;28;20110;-66
2023/12/20 12:16:53;;;;;;;5.22;2.80;;;22.30;49.90;;;;;;4951891;28;20043;-66
2023/12/20 12:19:26;;;;;;;6.22;2.83;;;22.20;50.00;;;;;;4950081;28;20036;-69
2023/12/20 12:22:07;;;;;;;5.68;3.08;;;22.20;50.10;;;;;;4947803;28;20035;-68
2023/12/20 12:24:32;;;;;;;5.38;2.35;;;22.10;50.30;;;;;;4949467;28;20173;-68
2023/12/20 12:26:58;;;;;;;6.75;3.05;;;22.00;50.40;;;;;;4942938;28;20055;-67
2023/12/20 12:29:24;;;;;;;6.40;3.40;;;22.00;50.60;;;;;;4951261;28;20055;-68
2023/12/20 12:31:50;;;;;;;5.53;2.63;;;21.90;50.60;;;;;;4951805;28;20031;-69
2023/12/20 12:34:17;;;;;;;5.13;3.03;;;21.80;50.70;;;;;;4955539;28;20047;-68
2023/12/20 12:36:43;;;;;;;7.35;3.47;;;21.80;50.80;;;;;;4945389;28;20077;-67
2023/12/20 12:39:11;;;;;;;8.70;3.40;;;21.70;50.90;;;;;;4947023;28;20055;-66
2023/12/20 12:41:37;;;;;;;5.85;3.13;;;21.60;50.90;;;;;;4952321;28;20054;-69